Time;durP1;ratioP1;P1;durP2;ratioP2;P2;SDS_P1;SDS_P2;PMS_P1;PMS_P2;Temp;Humidity;BMP_temperature;BMP_pressure;BME280_temperature;BME280_humidity;BME280_pressure;Samples;Min_cycle;Max_cycle;Signal;HPM_P1;HPM_P2
2022/09/06 00:00:26;;;;;;;6.67;6.27;;;;;;;14.67;100.00;97335.16;5004894;28;20228;-55
2022/09/06 00:02:54;;;;;;;7.50;7.00;;;;;;;14.60;100.00;97340.50;5002659;28;20205;-59
2022/09/06 00:05:22;;;;;;;8.03;7.33;;;;;;;14.57;100.00;97332.91;5003608;28;20212;-58
2022/09/06 00:07:51;;;;;;;7.90;7.20;;;;;;;14.53;100.00;97333.50;5000956;28;20207;-61
2022/09/06 00:10:19;;;;;;;7.27;6.87;;;;;;;14.50;100.00;97334.75;5004936;28;20197;-56
2022/09/06 00:12:49;;;;;;;8.00;7.40;;;;;;;14.48;100.00;97324.28;4961746;28;20383;-58
2022/09/06 00:15:17;;;;;;;8.03;7.43;;;;;;;14.45;100.00;97330.03;5006403;28;20212;-60
2022/09/06 00:17:46;;;;;;;7.73;7.30;;;;;;;14.38;100.00;97328.38;5007510;28;20391;-57
2022/09/06 00:20:14;;;;;;;8.53;8.00;;;;;;;14.35;100.00;97329.63;4997434;28;20259;-56
2022/09/06 00:22:42;;;;;;;7.87;7.40;;;;;;;14.33;100.00;97334.34;5002161;28;20263;-57
2022/09/06 00:25:11;;;;;;;8.20;7.60;;;;;;;14.32;100.00;97338.84;5007089;28;21004;-55
2022/09/06 00:27:39;;;;;;;8.23;7.63;;;;;;;14.36;100.00;97347.25;4961126;28;20227;-55
2022/09/06 00:30:10;;;;;;;8.53;7.77;;;;;;;14.35;100.00;97334.97;5002849;28;20212;-59
2022/09/06 00:32:40;;;;;;;8.27;7.77;;;;;;;14.32;100.00;97344.16;5007706;28;20896;-56
2022/09/06 00:35:08;;;;;;;8.17;7.57;;;;;;;14.33;100.00;97343.16;5006833;28;20208;-59
2022/09/06 00:37:36;;;;;;;7.53;7.13;;;;;;;14.30;100.00;97346.22;5002290;28;20211;-60
2022/09/06 00:40:05;;;;;;;8.07;7.40;;;;;;;14.23;100.00;97353.41;5006113;28;20275;-59
2022/09/06 00:42:34;;;;;;;7.97;7.47;;;;;;;14.17;100.00;97352.34;4968622;28;20560;-60
2022/09/06 00:45:03;;;;;;;8.13;7.60;;;;;;;14.09;100.00;97343.75;5004817;28;20213;-54
2022/09/06 00:47:34;;;;;;;8.33;7.73;;;;;;;13.98;100.00;97340.63;5002881;28;20709;-60
2022/09/06 00:50:03;;;;;;;8.17;7.57;;;;;;;13.94;100.00;97339.41;4957043;28;20209;-54
2022/09/06 00:52:32;;;;;;;7.90;7.30;;;;;;;13.92;100.00;97340.66;5006698;28;20234;-60
2022/09/06 00:55:01;;;;;;;8.60;7.87;;;;;;;13.92;100.00;97330.78;4988634;28;21169;-56
2022/09/06 00:57:30;;;;;;;7.93;7.43;;;;;;;13.88;100.00;97353.53;5004462;28;20220;-58
2022/09/06 01:00:00;;;;;;;8.87;8.27;;;;;;;13.86;100.00;97345.75;5003877;28;20208;-52
2022/09/06 01:02:28;;;;;;;8.90;8.30;;;;;;;13.84;100.00;97354.97;5004603;28;20240;-57
2022/09/06 01:04:58;;;;;;;7.87;7.37;;;;;;;13.84;100.00;97354.97;4960376;28;20208;-60
2022/09/06 01:07:34;;;;;;;8.03;7.53;;;;;;;13.77;100.00;97349.59;5002303;28;20212;-53
2022/09/06 01:10:22;;;;;;;8.10;7.60;;;;;;;13.70;100.00;97349.59;5002062;28;20221;-54
2022/09/06 01:12:57;;;;;;;8.63;7.93;;;;;;;13.61;100.00;97350.78;4983641;28;20204;-56
2022/09/06 01:15:34;;;;;;;8.10;7.63;;;;;;;-148.82;100.00;60434.72;5004747;28;20195;-58
2022/09/06 01:18:13;;;;;;;8.23;7.60;;;;;;;-148.82;100.00;60434.72;5005165;28;20316;-56
2022/09/06 01:20:52;;;;;;;8.90;8.30;;;;;;;-148.82;100.00;60434.72;4965360;28;20232;-60
2022/09/06 01:23:55;;;;;;;8.50;7.90;;;;;;;-148.82;100.00;60434.72;5005822;28;21142;-56
2022/09/06 01:26:38;;;;;;;8.73;8.13;;;;;;;-148.82;100.00;60434.72;4988884;28;20212;-57
2022/09/06 01:29:13;;;;;;;9.47;8.67;;;;;;;-148.82;100.00;60434.72;5003107;28;20239;-59
2022/09/06 01:31:44;;;;;;;9.30;8.70;;;;;;;-148.82;100.00;60434.72;5003919;28;21044;-59
2022/09/06 01:34:21;;;;;;;9.70;8.90;;;;;;;-148.82;100.00;60434.72;5005346;28;20208;-57
2022/09/06 01:36:53;;;;;;;9.43;8.83;;;;;;;-148.82;100.00;60434.72;4963594;28;20216;-51
2022/09/06 01:39:38;;;;;;;10.43;9.70;;;;;;;-148.82;100.00;60434.72;5007096;28;20208;-59
2022/09/06 01:42:09;;;;;;;9.70;9.10;;;;;;;-148.82;100.00;60434.72;4987961;28;20783;-58
2022/09/06 01:44:39;;;;;;;10.40;9.70;;;;;;;-148.82;100.00;60434.72;5003696;28;20208;-60
2022/09/06 01:47:17;;;;;;;9.97;9.37;;;;;;;-148.82;100.00;60434.72;5002073;28;20759;-55
2022/09/06 01:49:56;;;;;;;9.93;9.33;;;;;;;-148.82;100.00;60434.72;4958830;28;20204;-59
2022/09/06 01:52:53;;;;;;;8.90;8.30;;;;;;;-148.82;100.00;60434.72;4924988;28;20229;-57
2022/09/06 01:55:26;;;;;;;8.70;8.10;;;;;;;-148.82;100.00;60434.72;4948400;28;20261;-56
2022/09/06 01:58:22;;;;;;;9.63;8.90;;;;;;;-148.82;100.00;60434.72;4924620;28;20214;-59
2022/09/06 02:00:58;;;;;;;9.13;8.53;;;;;;;-148.82;100.00;60434.72;4945876;28;20214;-57
2022/09/06 02:03:31;;;;;;;9.60;8.67;;;;;;;-148.82;100.00;60434.72;4951117;28;20232;-58
2022/09/06 02:06:05;;;;;;;9.57;8.77;;;;;;;-148.82;100.00;60434.72;4907591;28;21534;-56
2022/09/06 02:08:35;;;;;;;10.63;9.73;;;;;;;-148.82;100.00;60434.72;4945212;28;20214;-55
2022/09/06 02:11:06;;;;;;;10.17;9.40;;;;;;;-148.82;100.00;60434.72;4978878;28;21234;-59
2022/09/06 02:13:38;;;;;;;9.67;8.97;;;;;;;-148.82;100.00;60434.72;4979964;28;20563;-56
2022/09/06 02:16:09;;;;;;;10.23;9.47;;;;;;;-148.82;100.00;60434.72;5003179;28;20964;-55
2022/09/06 02:18:40;;;;;;;9.57;8.87;;;;;;;-148.82;100.00;60434.72;5003748;28;20204;-56
2022/09/06 02:21:10;;;;;;;9.27;8.63;;;;;;;-148.82;100.00;60434.72;4961063;28;21314;-52
2022/09/06 02:23:40;;;;;;;9.00;8.40;;;;;;;-148.82;100.00;60434.72;5001030;28;20201;-59
2022/09/06 02:26:12;;;;;;;9.77;9.07;;;;;;;-148.82;100.00;60434.72;5003548;28;20561;-52
2022/09/06 02:28:41;;;;;;;10.27;9.57;;;;;;;-148.82;100.00;60434.72;4980859;28;20262;-58
2022/09/06 02:31:13;;;;;;;10.13;9.43;;;;;;;-148.82;100.00;60434.72;5005525;28;20770;-57
2022/09/06 02:33:41;;;;;;;9.93;9.23;;;;;;;-148.82;100.00;60434.72;5001513;28;20291;-60
2022/09/06 02:36:10;;;;;;;9.43;8.83;;;;;;;-148.82;100.00;60434.72;5002052;28;20204;-56
2022/09/06 02:38:40;;;;;;;9.70;8.90;;;;;;;-148.82;100.00;60434.72;4963237;28;20677;-57
2022/09/06 02:41:08;;;;;;;10.50;9.80;;;;;;;-148.82;100.00;60434.72;5006509;28;20294;-56
2022/09/06 02:43:36;;;;;;;9.93;9.23;;;;;;;-148.82;100.00;60434.72;4977879;28;20598;-60
2022/09/06 02:46:05;;;;;;;9.47;8.87;;;;;;;-148.82;100.00;60434.72;5004035;28;21313;-57
2022/09/06 02:48:35;;;;;;;9.53;8.93;;;;;;;-148.82;100.00;60434.72;5002022;28;20744;-58
2022/09/06 02:51:04;;;;;;;9.47;8.77;;;;;;;-148.82;100.00;60434.72;5001826;28;20240;-55
2022/09/06 02:53:32;;;;;;;10.70;9.90;;;;;;;-148.82;100.00;60434.72;4932716;28;21381;-58
2022/09/06 02:56:01;;;;;;;10.10;9.50;;;;;;;-148.82;100.00;60434.72;4922843;28;20275;-56
2022/09/06 02:58:29;;;;;;;10.40;9.70;;;;;;;-148.82;100.00;60434.72;5002874;28;20216;-61
2022/09/06 03:00:57;;;;;;;10.47;9.63;;;;;;;-148.82;100.00;60434.72;4953067;28;20276;-59
2022/09/06 03:03:26;;;;;;;11.40;10.60;;;;;;;-148.82;100.00;60434.72;5003854;28;20295;-57
2022/09/06 03:05:56;;;;;;;10.57;9.70;;;;;;;-148.82;100.00;60434.72;4961968;28;21658;-55
2022/09/06 03:08:25;;;;;;;11.80;11.00;;;;;;;-148.82;100.00;60434.72;5002774;28;20517;-57
2022/09/06 03:10:55;;;;;;;11.33;10.57;;;;;;;-148.82;100.00;60434.72;4961784;28;20926;-54
2022/09/06 03:13:24;;;;;;;10.83;10.13;;;;;;;-148.82;100.00;60434.72;5000987;28;20783;-58
2022/09/06 03:15:54;;;;;;;11.03;10.17;;;;;;;-148.82;100.00;60434.72;5002618;28;20227;-53
2022/09/06 03:18:22;;;;;;;10.40;9.70;;;;;;;-148.82;100.00;60434.72;4987615;28;20213;-55
2022/09/06 03:20:51;;;;;;;10.47;9.77;;;;;;;-148.82;100.00;60434.72;4974663;28;21021;-56
2022/09/06 03:23:22;;;;;;;10.77;10.07;;;;;;;-148.82;100.00;60434.72;4986992;28;20259;-56
2022/09/06 03:25:51;;;;;;;11.23;10.33;;;;;;;-148.82;100.00;60434.72;5005741;28;20192;-56
2022/09/06 03:28:19;;;;;;;10.63;9.87;;;;;;;-148.82;100.00;60434.72;4957525;28;20271;-56
2022/09/06 03:30:50;;;;;;;12.90;10.70;;;;;;;-148.82;100.00;60434.72;4995699;28;20336;-54
2022/09/06 03:33:18;;;;;;;10.73;10.00;;;;;;;-148.82;100.00;60434.72;4987432;28;20219;-56
2022/09/06 03:35:51;;;;;;;10.97;10.17;;;;;;;-148.82;100.00;60434.72;4974171;28;20779;-55
2022/09/06 03:38:22;;;;;;;10.70;9.93;;;;;;;-148.82;100.00;60434.72;4984586;28;20640;-57
2022/09/06 03:40:51;;;;;;;10.37;9.57;;;;;;;-148.82;100.00;60434.72;5001246;28;20216;-59
2022/09/06 03:43:21;;;;;;;10.37;9.67;;;;;;;-148.82;100.00;60434.72;4960366;28;20201;-56
2022/09/06 03:45:51;;;;;;;10.63;9.87;;;;;;;-148.82;100.00;60434.72;4995957;28;21105;-54
2022/09/06 03:48:21;;;;;;;11.10;9.67;;;;;;;-148.82;100.00;60434.72;4991582;28;20728;-58
2022/09/06 03:50:51;;;;;;;10.87;9.90;;;;;;;-148.82;100.00;60434.72;5005035;28;21027;-55
2022/09/06 03:53:19;;;;;;;10.83;10.13;;;;;;;-148.82;100.00;60434.72;4977452;28;20835;-59
2022/09/06 03:55:49;;;;;;;11.30;10.50;;;;;;;-148.82;100.00;60434.72;5007889;28;21115;-56
2022/09/06 03:58:19;;;;;;;11.20;10.40;;;;;;;-148.82;100.00;60434.72;4958895;28;20278;-56
2022/09/06 04:00:48;;;;;;;10.33;9.60;;;;;;;-148.82;100.00;60434.72;4987995;28;21164;-60
2022/09/06 04:03:18;;;;;;;10.60;9.80;;;;;;;-148.82;100.00;60434.72;4987293;28;20205;-56
2022/09/06 04:05:46;;;;;;;10.83;10.10;;;;;;;-148.82;100.00;60434.72;4980517;28;20200;-53
2022/09/06 04:08:14;;;;;;;10.77;10.07;;;;;;;-148.82;100.00;60434.72;4976870;28;20631;-60
2022/09/06 04:10:44;;;;;;;11.10;10.30;;;;;;;-148.82;100.00;60434.72;5006352;28;20324;-56
2022/09/06 04:13:14;;;;;;;10.67;9.77;;;;;;;-148.82;100.00;60434.72;4966409;28;20962;-61
2022/09/06 04:15:45;;;;;;;10.13;9.43;;;;;;;-148.82;100.00;60434.72;4991661;28;20204;-55
2022/09/06 04:18:14;;;;;;;10.53;9.83;;;;;;;-148.82;100.00;60434.72;4987461;28;20200;-60
2022/09/06 04:20:43;;;;;;;10.37;9.67;;;;;;;-148.82;100.00;60434.72;4991121;28;20330;-57
2022/09/06 04:23:11;;;;;;;11.63;10.63;;;;;;;-148.82;100.00;60434.72;4984927;28;20223;-59
2022/09/06 04:25:41;;;;;;;11.27;10.27;;;;;;;-148.82;100.00;60434.72;4997197;28;20209;-59
2022/09/06 04:28:10;;;;;;;12.03;11.13;;;;;;;-148.82;100.00;60434.72;4965926;28;20312;-58
2022/09/06 04:30:40;;;;;;;11.13;10.40;;;;;;;-148.82;100.00;60434.72;4998716;28;20228;-57
2022/09/06 04:33:08;;;;;;;13.43;12.43;;;;;;;-148.82;100.00;60434.72;5003660;28;21244;-56
2022/09/06 04:35:36;;;;;;;12.80;12.00;;;;;;;-148.82;100.00;60434.72;4965975;28;20209;-55
2022/09/06 04:38:04;;;;;;;12.50;11.50;;;;;;;-148.82;100.00;60434.72;4995719;28;20650;-58
2022/09/06 04:40:33;;;;;;;12.57;11.67;;;;;;;-148.82;100.00;60434.72;4997266;28;20217;-50
2022/09/06 04:43:01;;;;;;;12.87;11.87;;;;;;;-148.82;100.00;60434.72;5001986;28;20709;-59
2022/09/06 04:45:29;;;;;;;12.07;11.17;;;;;;;-148.82;100.00;60434.72;4965338;28;20303;-53
2022/09/06 04:47:59;;;;;;;12.47;11.50;;;;;;;-148.82;100.00;60434.72;5004356;28;20278;-58
2022/09/06 04:50:27;;;;;;;11.47;10.67;;;;;;;-148.82;100.00;60434.72;4970845;28;21135;-57
2022/09/06 04:52:56;;;;;;;11.73;10.93;;;;;;;-148.82;100.00;60434.72;5005349;28;20226;-55
2022/09/06 04:55:25;;;;;;;11.60;10.80;;;;;;;-148.82;100.00;60434.72;4963583;28;20295;-54
2022/09/06 04:57:53;;;;;;;12.27;11.47;;;;;;;-148.82;100.00;60434.72;5001136;28;20201;-58
2022/09/06 05:00:21;;;;;;;11.73;10.93;;;;;;;-148.82;100.00;60434.72;4958907;28;20201;-52
2022/09/06 05:02:49;;;;;;;11.33;10.53;;;;;;;-148.82;100.00;60434.72;4934032;28;20394;-54
2022/09/06 05:05:19;;;;;;;13.20;12.27;;;;;;;-148.82;100.00;60434.72;4944473;28;20252;-54
2022/09/06 05:07:48;;;;;;;12.40;11.53;;;;;;;-148.82;100.00;60434.72;5000231;28;20231;-58
2022/09/06 05:10:16;;;;;;;11.97;11.07;;;;;;;-148.82;100.00;60434.72;4972882;28;20201;-55
2022/09/06 05:12:48;;;;;;;12.40;11.37;;;;;;;-148.82;100.00;60434.72;5009527;28;20248;-55
2022/09/06 05:15:16;;;;;;;12.10;11.30;;;;;;;-148.82;100.00;60434.72;5004950;28;20227;-53
2022/09/06 05:17:45;;;;;;;11.73;10.97;;;;;;;-148.82;100.00;60434.72;4957356;28;20292;-58
2022/09/06 05:20:13;;;;;;;12.97;12.07;;;;;;;-148.82;100.00;60434.72;5000527;28;20890;-55
2022/09/06 05:22:43;;;;;;;12.77;11.77;;;;;;;-148.82;100.00;60434.72;5003148;28;20271;-56
2022/09/06 05:25:11;;;;;;;12.67;11.67;;;;;;;-148.82;100.00;60434.72;4956241;28;20307;-53
2022/09/06 05:27:39;;;;;;;13.13;12.13;;;;;;;-148.82;100.00;60434.72;5001744;28;20200;-58
2022/09/06 05:30:09;;;;;;;13.73;12.63;;;;;;;-148.82;100.00;60434.72;5001442;28;20292;-57
2022/09/06 05:32:37;;;;;;;13.17;12.27;;;;;;;-148.82;100.00;60434.72;4962119;28;20763;-53
2022/09/06 05:35:05;;;;;;;13.03;12.03;;;;;;;-148.82;100.00;60434.72;5003293;28;20204;-54
2022/09/06 05:37:33;;;;;;;14.03;12.93;;;;;;;-148.82;100.00;60434.72;5006502;28;20696;-51
2022/09/06 05:40:03;;;;;;;14.70;13.33;;;;;;;-148.82;100.00;60434.72;4958993;28;21007;-53
2022/09/06 05:42:32;;;;;;;12.97;11.90;;;;;;;-148.82;100.00;60434.72;5009399;28;20224;-53
2022/09/06 05:45:01;;;;;;;14.60;13.50;;;;;;;-148.82;100.00;60434.72;5001971;28;20962;-56
2022/09/06 05:47:33;;;;;;;14.57;12.87;;;;;;;-148.82;100.00;60434.72;5005649;28;20676;-56
2022/09/06 05:50:01;;;;;;;13.13;12.03;;;;;;;-148.82;100.00;60434.72;4957600;28;20295;-55
2022/09/06 05:52:29;;;;;;;13.37;12.20;;;;;;;-148.82;100.00;60434.72;5006123;28;21824;-58
2022/09/06 05:54:57;;;;;;;12.50;10.97;;;;;;;-148.82;100.00;60434.72;4988138;28;20228;-60
2022/09/06 05:57:27;;;;;;;13.53;12.33;;;;;;;-148.82;100.00;60434.72;4991855;28;20296;-59
2022/09/06 05:59:55;;;;;;;13.77;12.67;;;;;;;-148.82;100.00;60434.72;5000766;28;20201;-59
2022/09/06 06:02:23;;;;;;;14.70;13.30;;;;;;;-148.82;100.00;60434.72;5010783;28;20787;-51
2022/09/06 06:04:53;;;;;;;12.53;11.63;;;;;;;-148.82;100.00;60434.72;4965999;28;20343;-59
2022/09/06 06:07:21;;;;;;;11.57;10.77;;;;;;;-148.82;100.00;60434.72;5003569;28;20299;-57
2022/09/06 06:09:49;;;;;;;11.83;10.93;;;;;;;-148.82;100.00;60434.72;4999503;28;20637;-57
2022/09/06 06:12:17;;;;;;;12.73;11.67;;;;;;;-148.82;100.00;60434.72;4987041;28;20356;-54
2022/09/06 06:14:47;;;;;;;11.67;10.87;;;;;;;-148.82;100.00;60434.72;5001697;28;20653;-58
2022/09/06 06:17:15;;;;;;;10.83;9.73;;;;;;;-148.82;100.00;60434.72;4999997;28;20900;-58
2022/09/06 06:19:43;;;;;;;11.77;10.98;;;;;;;-148.82;100.00;60434.72;4959821;28;20485;-55
2022/09/06 06:22:11;;;;;;;11.13;10.33;;;;;;;-148.82;100.00;60434.72;5003987;28;20216;-56
2022/09/06 06:24:40;;;;;;;10.73;10.03;;;;;;;-148.82;100.00;60434.72;5004460;28;20201;-56
2022/09/06 06:27:08;;;;;;;10.07;9.10;;;;;;;-148.82;100.00;60434.72;4984190;28;20259;-53
2022/09/06 06:29:36;;;;;;;11.27;10.47;;;;;;;-148.82;100.00;60434.72;5007415;28;20240;-53
2022/09/06 06:32:06;;;;;;;10.70;10.00;;;;;;;-148.82;100.00;60434.72;5000043;28;20316;-55
2022/09/06 06:34:34;;;;;;;10.13;9.43;;;;;;;-148.82;100.00;60434.72;5004986;28;20279;-56
2022/09/06 06:37:02;;;;;;;9.70;9.00;;;;;;;-148.82;100.00;60434.72;4957373;28;20307;-53
2022/09/06 06:39:30;;;;;;;10.03;9.23;;;;;;;-148.82;100.00;60434.72;5008788;28;20250;-54
2022/09/06 06:41:59;;;;;;;10.20;9.33;;;;;;;-148.82;100.00;60434.72;4979202;28;20263;-57
2022/09/06 06:44:27;;;;;;;9.37;8.70;;;;;;;17.95;100.00;97332.22;5005572;28;20192;-54
2022/09/06 06:46:56;;;;;;;10.57;9.63;;;;;;;18.20;100.00;97334.78;5000148;28;20801;-59
2022/09/06 06:49:27;;;;;;;10.33;9.53;;;;;;;18.20;100.00;97331.28;5001290;28;20205;-55
2022/09/06 06:51:55;;;;;;;9.20;8.47;;;;;;;18.58;100.00;97332.75;4955741;28;20311;-57
2022/09/06 06:54:23;;;;;;;9.90;9.20;;;;;;;18.91;100.00;97333.22;4999734;28;20262;-53
2022/09/06 06:56:51;;;;;;;10.93;10.23;;;;;;;18.81;100.00;97328.44;4975772;28;20678;-58
2022/09/06 06:59:20;;;;;;;17.63;10.27;;;;;;;19.07;100.00;97324.47;4982771;28;21080;-58
2022/09/06 07:01:49;;;;;;;8.90;8.20;;;;;;;19.29;100.00;97334.59;4986926;28;20260;-56
2022/09/06 07:04:17;;;;;;;9.10;8.40;;;;;;;19.28;100.00;97324.91;4997357;28;20527;-52
2022/09/06 07:06:51;;;;;;;8.53;7.70;;;;;;;18.95;100.00;97327.16;4963955;28;20356;-57
2022/09/06 07:09:40;;;;;;;8.80;8.00;;;;;;;18.96;100.00;97330.66;4977462;28;20215;-59
2022/09/06 07:12:29;;;;;;;9.50;8.70;;;;;;;18.88;100.00;97323.75;4987153;28;20227;-57
2022/09/06 07:14:57;;;;;;;8.63;7.90;;;;;;;19.11;100.00;97318.63;5000161;28;20599;-52
2022/09/06 07:17:25;;;;;;;9.70;8.80;;;;;;;19.30;100.00;97330.03;4987116;28;20595;-56
2022/09/06 07:19:53;;;;;;;9.10;8.30;;;;;;;19.24;100.00;97331.81;5003330;28;20243;-57
2022/09/06 07:22:43;;;;;;;8.90;8.10;;;;;;;19.69;100.00;97321.41;5000126;28;20206;-58
2022/09/06 07:25:12;;;;;;;8.93;8.17;;;;;;;19.80;100.00;97325.91;4961763;28;20684;-55
2022/09/06 07:27:47;;;;;;;9.43;8.73;;;;;;;19.91;100.00;97324.28;5000682;28;20212;-57
2022/09/06 07:30:18;;;;;;;9.17;8.53;;;;;;;19.83;100.00;97325.44;5002582;28;20208;-52
2022/09/06 07:32:47;;;;;;;8.67;8.07;;;;;;;19.83;100.00;97333.50;4983002;28;20200;-58
2022/09/06 07:35:15;;;;;;;12.27;11.37;;;;;;;19.98;100.00;97324.94;4999299;28;20262;-54
2022/09/06 07:37:52;;;;;;;9.67;8.97;;;;;;;19.99;100.00;97333.81;4995864;28;20211;-58
2022/09/06 07:40:20;;;;;;;8.13;7.53;;;;;;;20.36;100.00;97330.69;5003597;28;21069;-58
2022/09/06 07:42:48;;;;;;;8.38;7.70;;;;;;;20.37;100.00;97333.13;4951705;28;20454;-55
2022/09/06 07:45:17;;;;;;;7.87;7.23;;;;;;;19.92;100.00;97325.91;5005393;28;20283;-56
2022/09/06 07:47:45;;;;;;;8.33;7.50;;;;;;;20.12;100.00;97328.13;4985264;28;20300;-58
2022/09/06 07:50:29;;;;;;;8.83;8.10;;;;;;;20.92;100.00;97321.88;4999615;28;20750;-54
2022/09/06 07:53:17;;;;;;;7.87;7.43;;;;;;;21.11;100.00;97325.94;4997590;28;20211;-56
2022/09/06 07:55:57;;;;;;;8.27;7.70;;;;;;;21.12;100.00;97315.97;4953027;28;21707;-55
2022/09/06 07:58:25;;;;;;;8.57;7.60;;;;;;;20.95;100.00;97316.81;5005188;28;20290;-58
2022/09/06 08:00:53;;;;;;;8.00;7.30;;;;;;;20.79;100.00;97321.16;5002743;28;20225;-55
2022/09/06 08:03:21;;;;;;;9.47;8.77;;;;;;;20.39;100.00;97317.56;4986729;28;20678;-56
2022/09/06 08:05:50;;;;;;;9.37;8.67;;;;;;;20.37;100.00;97324.25;4993937;28;20295;-58
2022/09/06 08:08:35;;;;;;;9.47;8.77;;;;;;;20.49;100.00;97324.19;5005912;28;20214;-56
2022/09/06 08:11:24;;;;;;;10.33;9.60;;;;;;;20.38;100.00;97318.63;5003019;28;22159;-57
2022/09/06 08:13:54;;;;;;;9.63;9.10;;;;;;;20.67;100.00;97320.44;4952872;28;20209;-56
2022/09/06 08:16:23;;;;;;;9.10;8.53;;;;;;;20.71;100.00;97316.19;5004971;28;20312;-56
2022/09/06 08:18:52;;;;;;;8.30;7.80;;;;;;;20.78;100.00;97318.69;4979100;28;21171;-54
2022/09/06 08:21:22;;;;;;;8.03;7.30;;;;;;;20.67;100.00;97317.75;5003449;28;20224;-56
2022/09/06 08:23:54;;;;;;;7.23;6.63;;;;;;;20.65;100.00;97315.28;5001964;28;21371;-57
2022/09/06 08:26:23;;;;;;;7.37;6.77;;;;;;;20.76;100.00;97300.09;5000782;28;20283;-55
2022/09/06 08:28:53;;;;;;;7.50;6.73;;;;;;;20.90;100.00;97302.47;4952410;28;20458;-58
2022/09/06 08:31:22;;;;;;;8.23;7.60;;;;;;;21.23;100.00;97306.13;4998728;28;20953;-59
2022/09/06 08:33:51;;;;;;;7.33;6.83;;;;;;;21.45;100.00;97314.22;4986355;28;20204;-57
2022/09/06 08:36:20;;;;;;;7.83;7.13;;;;;;;21.53;100.00;97308.38;5007246;28;20324;-59
2022/09/06 08:38:48;;;;;;;7.10;6.60;;;;;;;21.72;100.00;97307.25;5003350;28;20236;-56
2022/09/06 08:41:24;;;;;;;7.60;7.07;;;;;;;21.83;100.00;97304.41;5005465;28;20255;-55
2022/09/06 08:43:54;;;;;;;6.93;6.53;;;;;;;21.93;100.00;97302.88;4957042;28;20905;-55
2022/09/06 08:46:48;;;;;;;6.60;6.10;;;;;;;22.22;100.00;97303.44;5002698;28;21072;-59
2022/09/06 08:49:16;;;;;;;7.00;6.40;;;;;;;22.35;100.00;97304.09;4985585;28;20232;-56
2022/09/06 08:51:59;;;;;;;7.10;6.30;;;;;;;22.48;100.00;97300.16;5001555;28;20642;-58
2022/09/06 08:54:31;;;;;;;7.63;7.20;;;;;;;22.61;100.00;97299.72;5006480;28;20200;-51
2022/09/06 08:57:11;;;;;;;11.53;10.73;;;;;;;22.54;100.00;97299.13;4999914;28;20212;-58
2022/09/06 08:59:41;;;;;;;7.37;6.97;;;;;;;22.89;100.00;97311.25;4966687;28;20200;-59
2022/09/06 09:02:12;;;;;;;7.83;7.03;;;;;;;22.92;100.00;97307.19;5006710;28;20331;-55
2022/09/06 09:04:44;;;;;;;6.77;6.37;;;;;;;22.52;100.00;97302.06;4998715;28;20281;-60
2022/09/06 09:07:23;;;;;;;6.97;6.57;;;;;;;22.60;100.00;97306.19;5004274;28;20216;-56
2022/09/06 09:09:52;;;;;;;7.10;6.63;;;;;;;22.66;100.00;97307.06;5004425;28;20314;-60
2022/09/06 09:12:23;;;;;;;7.33;6.93;;;;;;;22.83;100.00;97304.19;5009276;28;21025;-59
2022/09/06 09:14:54;;;;;;;6.90;6.50;;;;;;;22.72;100.00;97308.72;4960279;28;22352;-57
2022/09/06 09:17:28;;;;;;;7.30;6.80;;;;;;;22.93;100.00;97298.84;4955384;28;21756;-56
2022/09/06 09:19:57;;;;;;;7.67;7.13;;;;;;;23.21;100.00;97301.41;5002112;28;20809;-56
2022/09/06 09:22:25;;;;;;;7.90;7.30;;;;;;;23.47;100.00;97307.75;5003466;28;20228;-56
2022/09/06 09:24:54;;;;;;;8.03;7.40;;;;;;;23.39;100.00;97298.28;5000614;28;20292;-57
2022/09/06 09:27:26;;;;;;;6.93;6.53;;;;;;;23.38;100.00;97287.72;4991853;28;20212;-54
2022/09/06 09:29:59;;;;;;;6.90;6.40;;;;;;;23.49;100.00;97280.47;5005753;28;20319;-58
2022/09/06 09:32:48;;;;;;;7.90;6.33;;;;;;;23.15;100.00;97280.84;4960410;28;20239;-59
2022/09/06 09:35:35;;;;;;;6.80;6.20;;;;;;;23.19;100.00;97274.66;4977779;28;20482;-57
2022/09/06 09:38:07;;;;;;;6.77;6.37;;;;;;;23.23;100.00;97269.53;5005994;28;20287;-59
2022/09/06 09:40:42;;;;;;;7.57;6.10;;;;;;;23.55;100.00;97265.88;5003882;28;20298;-59
2022/09/06 09:43:15;;;;;;;6.70;6.20;;;;;;;23.82;100.00;97260.25;4995640;28;20224;-55
2022/09/06 09:45:44;;;;;;;6.37;5.87;;;;;;;23.88;100.00;97268.41;5002688;28;20250;-53
2022/09/06 09:48:21;;;;;;;6.30;6.00;;;;;;;24.07;100.00;97256.00;4935347;28;20981;-54
2022/09/06 09:50:49;;;;;;;6.40;6.00;;;;;;;24.03;100.00;97257.63;4998958;28;20750;-56
2022/09/06 09:53:20;;;;;;;6.30;5.90;;;;;;;24.18;100.00;97255.97;5000473;28;20231;-56
2022/09/06 09:55:48;;;;;;;6.00;5.60;;;;;;;24.23;100.00;97254.09;4999653;28;20247;-57
2022/09/06 09:58:24;;;;;;;6.27;5.67;;;;;;;24.37;100.00;97253.53;5001826;28;20326;-55
2022/09/06 10:01:17;;;;;;;6.40;5.90;;;;;;;24.18;100.00;97245.97;4983050;28;20235;-57
2022/09/06 10:03:46;;;;;;;6.00;5.60;;;;;;;24.42;100.00;97243.53;5002209;28;20335;-58
2022/09/06 10:06:34;;;;;;;6.53;6.07;;;;;;;24.27;100.00;97252.47;5003530;28;20212;-55
2022/09/06 10:09:31;;;;;;;5.97;5.47;;;;;;;24.58;100.00;97243.50;4985919;28;20204;-54
2022/09/06 10:12:00;;;;;;;6.70;6.30;;;;;;;24.41;100.00;97241.06;5005108;28;20763;-60
2022/09/06 10:14:32;;;;;;;5.50;5.20;;;;;;;24.33;100.00;97237.03;4989312;28;20223;-54
2022/09/06 10:17:00;;;;;;;7.40;6.90;;;;;;;24.18;100.00;97232.44;4989525;28;20240;-58
2022/09/06 10:19:40;;;;;;;6.63;6.23;;;;;;;24.20;100.00;97243.81;4959211;28;20298;-58
2022/09/06 10:22:30;;;;;;;6.80;6.40;;;;;;;24.36;100.00;97244.63;5001365;28;20219;-53
2022/09/06 10:25:34;;;;;;;6.53;6.17;;;;;;;24.26;100.00;97239.22;5007577;28;20215;-57
2022/09/06 10:28:28;;;;;;;6.70;6.20;;;;;;;24.02;100.00;97237.06;5005397;28;20222;-57
2022/09/06 10:31:19;;;;;;;7.43;6.80;;;;;;;24.09;100.00;97231.38;4981994;28;20228;-57
2022/09/06 10:33:59;;;;;;;7.30;6.70;;;;;;;24.36;100.00;97232.97;4987053;28;20212;-57
2022/09/06 10:36:31;;;;;;;8.07;7.50;;;;;;;24.11;100.00;97234.63;4964850;28;20252;-59
2022/09/06 10:39:02;;;;;;;8.83;8.03;;;;;;;24.09;100.00;97226.75;5000702;28;20704;-60
2022/09/06 10:41:39;;;;;;;7.73;7.13;;;;;;;24.21;100.00;97229.19;4982939;28;20599;-54
2022/09/06 10:44:16;;;;;;;7.97;7.47;;;;;;;24.33;100.00;97230.81;5004474;28;20227;-57
2022/09/06 10:46:47;;;;;;;7.70;7.00;;;;;;;24.39;100.00;97229.72;4981930;28;20343;-59
2022/09/06 10:49:17;;;;;;;8.30;7.33;;;;;;;24.53;100.00;97228.06;4983926;28;20196;-57
2022/09/06 10:51:49;;;;;;;8.47;6.87;;;;;;;24.55;100.00;97220.50;4960572;28;20247;-59
2022/09/06 10:54:21;;;;;;;7.60;7.20;;;;;;;24.41;100.00;97217.53;5002054;28;20201;-55
2022/09/06 10:56:52;;;;;;;7.20;6.80;;;;;;;24.57;100.00;97221.03;5007569;28;20227;-57
2022/09/06 10:59:25;;;;;;;8.47;7.77;;;;;;;24.22;100.00;97214.59;5006549;28;20228;-53
2022/09/06 11:02:23;;;;;;;7.73;7.10;;;;;;;24.37;100.00;97215.63;4999482;28;20317;-57
2022/09/06 11:04:51;;;;;;;7.30;6.80;;;;;;;24.55;100.00;97220.50;4985919;28;20244;-57
2022/09/06 11:07:42;;;;;;;7.83;7.27;;;;;;;24.67;100.00;97222.91;4954597;28;20208;-58
2022/09/06 11:10:32;;;;;;;6.83;6.10;;;;;;;24.86;100.00;97206.06;4999799;28;20214;-57
2022/09/06 11:13:05;;;;;;;8.40;6.40;;;;;;;24.88;100.00;97203.09;5000361;28;20228;-58
2022/09/06 11:15:37;;;;;;;7.23;6.63;;;;;;;24.84;100.00;97210.97;5007800;28;20285;-56
2022/09/06 11:18:11;;;;;;;8.20;6.73;;;;;;;24.56;100.00;97203.16;4984560;28;21200;-56
2022/09/06 11:20:42;;;;;;;6.57;6.07;;;;;;;24.91;100.00;97191.69;5004184;28;20231;-55
2022/09/06 11:23:28;;;;;;;6.60;6.07;;;;;;;25.22;100.00;97192.38;4961357;28;21002;-56
2022/09/06 11:26:33;;;;;;;5.87;5.57;;;;;;;25.42;95.81;97188.72;4934955;28;20573;-56
2022/09/06 11:29:03;;;;;;;6.43;6.03;;;;;;;25.32;98.39;97186.09;5003618;28;20200;-55
2022/09/06 11:31:33;;;;;;;6.50;5.90;;;;;;;25.17;96.91;97186.16;4965279;28;20329;-57
2022/09/06 11:34:25;;;;;;;5.60;5.30;;;;;;;25.48;93.12;97191.44;4998655;28;20200;-58